Terminal Aerodrome Forecast
Issued by NWS

Home | Current Version | Previous Version | Text Only | Print | Product List | Glossary On
Versions: 1 2 3 4 5 6 7 8 9 10 11 12 13 14 15 16
073
FTUS43 KLSX 232339
TAFUIN
TAF
KUIN 232339Z 2400/2424 14016KT P6SM SKC
     FM240300 16015KT P6SM SKC WS016/20045KT
     FM241400 19015G24KT P6SM BKN250
     FM242300 19010KT P6SM OVC035=

USA.gov is the U.S. government's official web portal to all federal, state and local government web resources and services.